sensor_id;sensor_type;location;lat;lon;timestamp;pressure;altitude;pressure_sealevel;temperature;humidity
51829;BME280;37881;48.024;8.774;2022-12-18T00:00:58;94691.34;;;-8.93;100.00
51829;BME280;37881;48.024;8.774;2022-12-18T00:03:25;94697.19;;;-8.91;100.00
51829;BME280;37881;48.024;8.774;2022-12-18T00:05:52;94701.13;;;-8.88;100.00
51829;BME280;37881;48.024;8.774;2022-12-18T00:08:19;94696.13;;;-9.00;100.00
51829;BME280;37881;48.024;8.774;2022-12-18T00:10:46;94697.72;;;-8.94;100.00
51829;BME280;37881;48.024;8.774;2022-12-18T00:13:12;94700.41;;;-8.99;100.00
51829;BME280;37881;48.024;8.774;2022-12-18T00:15:39;94706.16;;;-8.81;100.00
51829;BME280;37881;48.024;8.774;2022-12-18T00:18:06;94704.59;;;-8.88;100.00
51829;BME280;37881;48.024;8.774;2022-12-18T00:20:37;94700.09;;;-8.92;100.00
51829;BME280;37881;48.024;8.774;2022-12-18T00:23:05;94695.81;;;-8.88;100.00
51829;BME280;37881;48.024;8.774;2022-12-18T00:25:35;94697.19;;;-8.91;100.00
51829;BME280;37881;48.024;8.774;2022-12-18T00:28:03;94694.47;;;-8.80;100.00
51829;BME280;37881;48.024;8.774;2022-12-18T00:30:30;94695.28;;;-8.85;100.00
51829;BME280;37881;48.024;8.774;2022-12-18T00:32:57;94694.41;;;-8.75;100.00
51829;BME280;37881;48.024;8.774;2022-12-18T00:35:24;94689.13;;;-8.80;100.00
51829;BME280;37881;48.024;8.774;2022-12-18T00:37:50;94693.72;;;-8.91;100.00
51829;BME280;37881;48.024;8.774;2022-12-18T00:40:17;94690.81;;;-9.00;100.00
51829;BME280;37881;48.024;8.774;2022-12-18T00:42:44;94688.69;;;-8.98;100.00
51829;BME280;37881;48.024;8.774;2022-12-18T00:45:28;94697.97;;;-8.95;100.00
51829;BME280;37881;48.024;8.774;2022-12-18T00:47:56;94703.28;;;-8.90;100.00
51829;BME280;37881;48.024;8.774;2022-12-18T00:50:25;94706.13;;;-8.76;100.00
51829;BME280;37881;48.024;8.774;2022-12-18T00:52:52;94716.59;;;-8.95;100.00
51829;BME280;37881;48.024;8.774;2022-12-18T00:55:18;94719.25;;;-8.90;100.00
51829;BME280;37881;48.024;8.774;2022-12-18T00:57:45;94719.78;;;-8.93;100.00
51829;BME280;37881;48.024;8.774;2022-12-18T01:00:13;94720.34;;;-9.01;100.00
51829;BME280;37881;48.024;8.774;2022-12-18T01:02:41;94725.13;;;-9.04;100.00
51829;BME280;37881;48.024;8.774;2022-12-18T01:05:09;94723.00;;;-9.01;100.00
51829;BME280;37881;48.024;8.774;2022-12-18T01:07:36;94710.84;;;-9.18;100.00
51829;BME280;37881;48.024;8.774;2022-12-18T01:10:04;94707.91;;;-9.11;100.00
51829;BME280;37881;48.024;8.774;2022-12-18T01:12:32;94713.75;;;-9.14;100.00
51829;BME280;37881;48.024;8.774;2022-12-18T01:14:59;94713.22;;;-9.16;100.00
51829;BME280;37881;48.024;8.774;2022-12-18T01:17:26;94717.25;;;-9.24;100.00
51829;BME280;37881;48.024;8.774;2022-12-18T01:19:52;94724.38;;;-9.09;100.00
51829;BME280;37881;48.024;8.774;2022-12-18T01:22:19;94724.09;;;-9.02;100.00
51829;BME280;37881;48.024;8.774;2022-12-18T01:24:46;94723.53;;;-8.99;100.00
51829;BME280;37881;48.024;8.774;2022-12-18T01:27:13;94731.84;;;-9.11;100.00
51829;BME280;37881;48.024;8.774;2022-12-18T01:29:40;94728.63;;;-9.03;100.00
51829;BME280;37881;48.024;8.774;2022-12-18T01:32:08;94724.56;;;-8.85;100.00
51829;BME280;37881;48.024;8.774;2022-12-18T01:34:36;94733.75;;;-8.67;100.00
51829;BME280;37881;48.024;8.774;2022-12-18T01:37:04;94732.16;;;-8.68;100.00
51829;BME280;37881;48.024;8.774;2022-12-18T01:39:31;94734.31;;;-8.70;100.00
51829;BME280;37881;48.024;8.774;2022-12-18T01:42:00;94736.59;;;-8.53;100.00
51829;BME280;37881;48.024;8.774;2022-12-18T01:45:41;94740.66;;;-8.61;100.00
51829;BME280;37881;48.024;8.774;2022-12-18T01:47:47;94752.09;;;-8.60;100.00
51829;BME280;37881;48.024;8.774;2022-12-18T01:52:50;94743.91;;;-8.74;100.00
51829;BME280;37881;48.024;8.774;2022-12-18T01:55:21;94743.13;;;-8.75;100.00
51829;BME280;37881;48.024;8.774;2022-12-18T01:57:51;94748.75;;;-8.92;100.00
51829;BME280;37881;48.024;8.774;2022-12-18T02:00:20;94740.50;;;-8.90;100.00
51829;BME280;37881;48.024;8.774;2022-12-18T02:02:48;94738.44;;;-8.98;100.00
51829;BME280;37881;48.024;8.774;2022-12-18T02:05:19;94740.81;;;-9.02;100.00
51829;BME280;37881;48.024;8.774;2022-12-18T02:10:31;94743.22;;;-9.00;100.00
51829;BME280;37881;48.024;8.774;2022-12-18T02:13:20;94740.25;;;-8.94;100.00
51829;BME280;37881;48.024;8.774;2022-12-18T02:15:57;94744.44;;;-8.77;100.00
51829;BME280;37881;48.024;8.774;2022-12-18T02:18:32;94745.72;;;-8.65;100.00
51829;BME280;37881;48.024;8.774;2022-12-18T02:26:43;94743.34;;;-8.71;100.00
51829;BME280;37881;48.024;8.774;2022-12-18T02:29:16;94740.94;;;-8.68;100.00
51829;BME280;37881;48.024;8.774;2022-12-18T02:31:51;94748.16;;;-8.73;100.00
51829;BME280;37881;48.024;8.774;2022-12-18T02:34:21;94745.75;;;-8.70;100.00
51829;BME280;37881;48.024;8.774;2022-12-18T02:36:49;94742.53;;;-8.67;100.00
51829;BME280;37881;48.024;8.774;2022-12-18T02:39:18;94759.03;;;-8.65;100.00
51829;BME280;37881;48.024;8.774;2022-12-18T02:41:48;94744.91;;;-8.60;100.00
51829;BME280;37881;48.024;8.774;2022-12-18T02:44:15;94748.06;;;-8.58;100.00
51829;BME280;37881;48.024;8.774;2022-12-18T02:46:52;94760.28;;;-8.47;100.00
51829;BME280;37881;48.024;8.774;2022-12-18T02:49:36;94755.72;;;-8.46;100.00
51829;BME280;37881;48.024;8.774;2022-12-18T02:52:16;94750.41;;;-8.46;100.00
51829;BME280;37881;48.024;8.774;2022-12-18T02:54:57;94752.25;;;-8.41;100.00
51829;BME280;37881;48.024;8.774;2022-12-18T02:57:33;94761.00;;;-8.41;100.00
51829;BME280;37881;48.024;8.774;2022-12-18T03:00:16;94754.34;;;-8.38;100.00
51829;BME280;37881;48.024;8.774;2022-12-18T03:02:54;94746.88;;;-8.36;100.00
51829;BME280;37881;48.024;8.774;2022-12-18T03:05:36;94745.00;;;-8.36;100.00
51829;BME280;37881;48.024;8.774;2022-12-18T03:08:12;94750.56;;;-8.32;100.00
51829;BME280;37881;48.024;8.774;2022-12-18T03:11:03;94752.91;;;-8.26;100.00
51829;BME280;37881;48.024;8.774;2022-12-18T03:13:34;94756.84;;;-8.18;100.00
51829;BME280;37881;48.024;8.774;2022-12-18T03:16:05;94748.09;;;-8.18;100.00
51829;BME280;37881;48.024;8.774;2022-12-18T03:18:44;94750.50;;;-8.22;100.00
51829;BME280;37881;48.024;8.774;2022-12-18T03:21:14;94755.25;;;-8.19;100.00
51829;BME280;37881;48.024;8.774;2022-12-18T03:23:46;94745.41;;;-8.18;100.00
51829;BME280;37881;48.024;8.774;2022-12-18T03:26:18;94744.59;;;-8.19;100.00
51829;BME280;37881;48.024;8.774;2022-12-18T03:28:50;94749.91;;;-8.14;100.00
51829;BME280;37881;48.024;8.774;2022-12-18T03:31:19;94749.59;;;-8.07;100.00
51829;BME280;37881;48.024;8.774;2022-12-18T03:33:59;94749.91;;;-8.14;100.00
51829;BME280;37881;48.024;8.774;2022-12-18T03:36:27;94757.06;;;-8.09;100.00
51829;BME280;37881;48.024;8.774;2022-12-18T03:38:54;94759.19;;;-8.06;100.00
51829;BME280;37881;48.024;8.774;2022-12-18T03:47:06;94759.94;;;-8.00;100.00
51829;BME280;37881;48.024;8.774;2022-12-18T03:52:13;94762.59;;;-8.00;100.00
51829;BME280;37881;48.024;8.774;2022-12-18T03:54:44;94771.13;;;-7.98;100.00
51829;BME280;37881;48.024;8.774;2022-12-18T03:57:16;94764.78;;;-8.08;100.00
51829;BME280;37881;48.024;8.774;2022-12-18T03:59:47;94770.28;;;-7.94;100.00
51829;BME280;37881;48.024;8.774;2022-12-18T04:02:16;94771.84;;;-7.93;100.00
51829;BME280;37881;48.024;8.774;2022-12-18T04:04:44;94766.22;;;-7.86;100.00
51829;BME280;37881;48.024;8.774;2022-12-18T04:07:14;94761.44;;;-7.89;100.00
51829;BME280;37881;48.024;8.774;2022-12-18T04:09:43;94755.13;;;-7.98;100.00
51829;BME280;37881;48.024;8.774;2022-12-18T04:12:11;94762.78;;;-7.87;100.00
51829;BME280;37881;48.024;8.774;2022-12-18T04:14:39;94767.50;;;-7.78;100.00
51829;BME280;37881;48.024;8.774;2022-12-18T04:17:06;94769.25;;;-7.98;100.00
51829;BME280;37881;48.024;8.774;2022-12-18T04:19:33;94766.00;;;-7.95;100.00
51829;BME280;37881;48.024;8.774;2022-12-18T04:21:59;94764.38;;;-7.91;100.00
51829;BME280;37881;48.024;8.774;2022-12-18T04:24:26;94767.03;;;-7.91;100.00
51829;BME280;37881;48.024;8.774;2022-12-18T04:26:53;94774.50;;;-7.93;100.00
51829;BME280;37881;48.024;8.774;2022-12-18T04:29:20;94771.81;;;-7.82;100.00
51829;BME280;37881;48.024;8.774;2022-12-18T04:31:46;94778.16;;;-7.78;100.00
51829;BME280;37881;48.024;8.774;2022-12-18T04:34:13;94774.13;;;-7.76;100.00
51829;BME280;37881;48.024;8.774;2022-12-18T04:36:40;94778.47;;;-7.85;100.00
51829;BME280;37881;48.024;8.774;2022-12-18T04:39:07;94784.03;;;-7.81;100.00
51829;BME280;37881;48.024;8.774;2022-12-18T04:41:33;94788.22;;;-7.70;100.00
51829;BME280;37881;48.024;8.774;2022-12-18T04:44:00;94783.41;;;-7.68;100.00
51829;BME280;37881;48.024;8.774;2022-12-18T04:46:26;94784.00;;;-7.76;100.00
51829;BME280;37881;48.024;8.774;2022-12-18T04:48:53;94779.78;;;-7.82;100.00
51829;BME280;37881;48.024;8.774;2022-12-18T04:51:20;94770.28;;;-7.65;100.00
51829;BME280;37881;48.024;8.774;2022-12-18T04:53:52;94768.56;;;-7.79;100.00
51829;BME280;37881;48.024;8.774;2022-12-18T04:56:19;94774.41;;;-7.77;100.00
51829;BME280;37881;48.024;8.774;2022-12-18T04:58:46;94774.91;;;-7.70;100.00
51829;BME280;37881;48.024;8.774;2022-12-18T05:01:15;94773.56;;;-7.73;100.00
51829;BME280;37881;48.024;8.774;2022-12-18T05:03:42;94782.03;;;-7.66;100.00
51829;BME280;37881;48.024;8.774;2022-12-18T05:06:10;94779.66;;;-7.67;100.00
51829;BME280;37881;48.024;8.774;2022-12-18T05:08:37;94779.94;;;-7.69;100.00
51829;BME280;37881;48.024;8.774;2022-12-18T05:11:14;94775.63;;;-7.65;100.00
51829;BME280;37881;48.024;8.774;2022-12-18T05:13:43;94786.00;;;-7.63;100.00
51829;BME280;37881;48.024;8.774;2022-12-18T05:16:11;94788.50;;;-7.72;100.00
51829;BME280;37881;48.024;8.774;2022-12-18T05:18:38;94789.56;;;-7.73;100.00
51829;BME280;37881;48.024;8.774;2022-12-18T05:21:05;94792.47;;;-7.69;100.00
51829;BME280;37881;48.024;8.774;2022-12-18T05:23:32;94791.69;;;-7.70;100.00
51829;BME280;37881;48.024;8.774;2022-12-18T05:26:00;94792.53;;;-7.79;100.00
51829;BME280;37881;48.024;8.774;2022-12-18T05:28:29;94797.84;;;-7.74;100.00
51829;BME280;37881;48.024;8.774;2022-12-18T05:30:58;94799.94;;;-7.71;100.00
51829;BME280;37881;48.024;8.774;2022-12-18T05:33:27;94805.53;;;-7.73;100.00
51829;BME280;37881;48.024;8.774;2022-12-18T05:35:57;94808.72;;;-7.71;100.00
51829;BME280;37881;48.024;8.774;2022-12-18T05:38:25;94801.31;;;-7.74;100.00
51829;BME280;37881;48.024;8.774;2022-12-18T05:40:53;94804.16;;;-7.65;100.00
51829;BME280;37881;48.024;8.774;2022-12-18T05:43:21;94799.69;;;-7.75;100.00
51829;BME280;37881;48.024;8.774;2022-12-18T05:45:48;94801.25;;;-7.69;100.00
51829;BME280;37881;48.024;8.774;2022-12-18T05:48:16;94800.44;;;-7.64;100.00
51829;BME280;37881;48.024;8.774;2022-12-18T05:50:45;94803.41;;;-7.71;100.00
51829;BME280;37881;48.024;8.774;2022-12-18T05:53:13;94791.09;;;-7.67;100.00
51829;BME280;37881;48.024;8.774;2022-12-18T05:55:41;94800.72;;;-7.71;100.00
51829;BME280;37881;48.024;8.774;2022-12-18T05:58:09;94794.97;;;-7.83;100.00
51829;BME280;37881;48.024;8.774;2022-12-18T06:00:38;94798.91;;;-7.75;100.00
51829;BME280;37881;48.024;8.774;2022-12-18T06:03:09;94802.06;;;-7.68;100.00
51829;BME280;37881;48.024;8.774;2022-12-18T06:05:40;94805.03;;;-7.75;100.00
51829;BME280;37881;48.024;8.774;2022-12-18T06:08:08;94805.53;;;-7.68;100.00
51829;BME280;37881;48.024;8.774;2022-12-18T06:10:34;94798.81;;;-7.65;100.00
51829;BME280;37881;48.024;8.774;2022-12-18T06:13:01;94807.41;;;-7.73;100.00
51829;BME280;37881;48.024;8.774;2022-12-18T06:15:28;94805.78;;;-7.69;100.00
51829;BME280;37881;48.024;8.774;2022-12-18T06:17:54;94804.44;;;-7.67;100.00
51829;BME280;37881;48.024;8.774;2022-12-18T06:20:21;94808.09;;;-7.57;100.00
51829;BME280;37881;48.024;8.774;2022-12-18T06:22:49;94816.09;;;-7.57;100.00
51829;BME280;37881;48.024;8.774;2022-12-18T06:25:15;94817.47;;;-7.60;100.00
51829;BME280;37881;48.024;8.774;2022-12-18T06:27:42;94824.94;;;-7.62;100.00
51829;BME280;37881;48.024;8.774;2022-12-18T06:30:10;94824.34;;;-7.54;100.00
51829;BME280;37881;48.024;8.774;2022-12-18T06:32:38;94827.03;;;-7.59;100.00
51829;BME280;37881;48.024;8.774;2022-12-18T06:35:05;94831.38;;;-7.68;100.00
51829;BME280;37881;48.024;8.774;2022-12-18T06:37:31;94825.91;;;-7.53;100.00
51829;BME280;37881;48.024;8.774;2022-12-18T06:39:58;94835.28;;;-7.55;100.00
51829;BME280;37881;48.024;8.774;2022-12-18T06:42:25;94832.59;;;-7.55;100.00
51829;BME280;37881;48.024;8.774;2022-12-18T06:44:52;94827.78;;;-7.53;100.00
51829;BME280;37881;48.024;8.774;2022-12-18T06:47:18;94841.56;;;-7.41;100.00
51829;BME280;37881;48.024;8.774;2022-12-18T06:49:45;94838.13;;;-7.47;100.00
51829;BME280;37881;48.024;8.774;2022-12-18T06:52:12;94844.78;;;-7.44;100.00
51829;BME280;37881;48.024;8.774;2022-12-18T06:54:38;94843.25;;;-7.50;100.00
51829;BME280;37881;48.024;8.774;2022-12-18T06:57:05;94850.41;;;-7.46;100.00
51829;BME280;37881;48.024;8.774;2022-12-18T06:59:32;94845.09;;;-7.51;100.00
51829;BME280;37881;48.024;8.774;2022-12-18T07:01:58;94858.31;;;-7.35;100.00
51829;BME280;37881;48.024;8.774;2022-12-18T07:04:30;94865.47;;;-7.31;100.00
51829;BME280;37881;48.024;8.774;2022-12-18T07:06:57;94864.13;;;-7.28;100.00
51829;BME280;37881;48.024;8.774;2022-12-18T07:09:24;94857.44;;;-7.26;100.00
51829;BME280;37881;48.024;8.774;2022-12-18T07:11:51;94861.75;;;-7.35;100.00
51829;BME280;37881;48.024;8.774;2022-12-18T07:14:18;94861.53;;;-7.38;100.00
51829;BME280;37881;48.024;8.774;2022-12-18T07:16:45;94856.72;;;-7.36;100.00
51829;BME280;37881;48.024;8.774;2022-12-18T07:19:11;94858.75;;;-7.23;100.00
51829;BME280;37881;48.024;8.774;2022-12-18T07:21:38;94860.38;;;-7.27;100.00
51829;BME280;37881;48.024;8.774;2022-12-18T07:24:05;94859.59;;;-7.28;100.00
51829;BME280;37881;48.024;8.774;2022-12-18T07:26:32;94870.16;;;-7.17;100.00
51829;BME280;37881;48.024;8.774;2022-12-18T07:28:59;94872.56;;;-7.16;100.00
51829;BME280;37881;48.024;8.774;2022-12-18T07:31:26;94870.34;;;-7.09;100.00
51829;BME280;37881;48.024;8.774;2022-12-18T07:33:54;94875.66;;;-7.04;100.00
51829;BME280;37881;48.024;8.774;2022-12-18T07:36:21;94878.25;;;-6.98;100.00
51829;BME280;37881;48.024;8.774;2022-12-18T07:38:49;94872.31;;;-6.90;100.00
51829;BME280;37881;48.024;8.774;2022-12-18T07:41:16;94872.47;;;-7.06;100.00
51829;BME280;37881;48.024;8.774;2022-12-18T07:43:43;94869.88;;;-6.87;100.00
51829;BME280;37881;48.024;8.774;2022-12-18T07:46:11;94863.00;;;-6.93;100.00
51829;BME280;37881;48.024;8.774;2022-12-18T07:48:44;94874.97;;;-6.90;100.00
51829;BME280;37881;48.024;8.774;2022-12-18T07:51:16;94875.94;;;-7.05;100.00
51829;BME280;37881;48.024;8.774;2022-12-18T07:53:43;94887.59;;;-6.96;100.00
51829;BME280;37881;48.024;8.774;2022-12-18T07:56:12;94893.47;;;-6.99;100.00
51829;BME280;37881;48.024;8.774;2022-12-18T07:58:57;94882.72;;;-6.89;100.00
51829;BME280;37881;48.024;8.774;2022-12-18T08:01:24;94888.28;;;-6.85;100.00
51829;BME280;37881;48.024;8.774;2022-12-18T08:03:51;94892.16;;;-7.01;100.00
51829;BME280;37881;48.024;8.774;2022-12-18T08:06:19;94893.63;;;-6.85;100.00
51829;BME280;37881;48.024;8.774;2022-12-18T08:08:53;94892.13;;;-6.67;100.00
51829;BME280;37881;48.024;8.774;2022-12-18T08:11:21;94895.84;;;-6.68;100.00
51829;BME280;37881;48.024;8.774;2022-12-18T08:13:48;94892.13;;;-6.67;100.00
51829;BME280;37881;48.024;8.774;2022-12-18T08:16:15;94899.13;;;-6.76;100.00
51829;BME280;37881;48.024;8.774;2022-12-18T08:18:42;94892.56;;;-6.60;100.00
51829;BME280;37881;48.024;8.774;2022-12-18T08:21:29;94901.44;;;-6.40;100.00
51829;BME280;37881;48.024;8.774;2022-12-18T08:23:58;94898.31;;;-6.48;100.00
51829;BME280;37881;48.024;8.774;2022-12-18T08:26:26;94894.69;;;-6.57;100.00
51829;BME280;37881;48.024;8.774;2022-12-18T08:28:55;94899.16;;;-6.52;100.00
51829;BME280;37881;48.024;8.774;2022-12-18T08:31:22;94908.09;;;-6.38;100.00
51829;BME280;37881;48.024;8.774;2022-12-18T08:33:51;94901.03;;;-6.29;100.00
51829;BME280;37881;48.024;8.774;2022-12-18T08:36:19;94903.88;;;-6.20;100.00
51829;BME280;37881;48.024;8.774;2022-12-18T08:38:46;94912.25;;;-6.27;100.00
51829;BME280;37881;48.024;8.774;2022-12-18T08:41:14;94908.44;;;-6.20;100.00
51829;BME280;37881;48.024;8.774;2022-12-18T08:43:42;94904.47;;;-6.23;100.00
51829;BME280;37881;48.024;8.774;2022-12-18T08:46:32;94905.81;;;-6.01;100.00
51829;BME280;37881;48.024;8.774;2022-12-18T08:49:00;94905.06;;;-6.07;100.00
51829;BME280;37881;48.024;8.774;2022-12-18T08:51:28;94901.03;;;-6.05;100.00
51829;BME280;37881;48.024;8.774;2022-12-18T08:53:54;94906.88;;;-6.03;100.00
51829;BME280;37881;48.024;8.774;2022-12-18T08:56:21;94896.31;;;-5.94;100.00
51829;BME280;37881;48.024;8.774;2022-12-18T08:58:51;94898.50;;;-5.77;100.00
51829;BME280;37881;48.024;8.774;2022-12-18T09:01:18;94886.69;;;-6.14;100.00
51829;BME280;37881;48.024;8.774;2022-12-18T09:03:45;94884.53;;;-6.12;100.00
51829;BME280;37881;48.024;8.774;2022-12-18T09:06:17;94883.47;;;-5.92;100.00
51829;BME280;37881;48.024;8.774;2022-12-18T09:08:44;94886.72;;;-5.76;100.00
51829;BME280;37881;48.024;8.774;2022-12-18T09:11:37;94892.06;;;-5.76;100.00
51829;BME280;37881;48.024;8.774;2022-12-18T09:14:04;94887.31;;;-5.60;100.00
51829;BME280;37881;48.024;8.774;2022-12-18T09:16:32;94884.78;;;-5.51;100.00
51829;BME280;37881;48.024;8.774;2022-12-18T09:19:03;94886.59;;;-5.47;100.00
51829;BME280;37881;48.024;8.774;2022-12-18T09:21:32;94888.91;;;-5.40;100.00
51829;BME280;37881;48.024;8.774;2022-12-18T09:24:02;94889.91;;;-5.36;100.00
51829;BME280;37881;48.024;8.774;2022-12-18T09:26:30;94885.38;;;-5.54;100.00
51829;BME280;37881;48.024;8.774;2022-12-18T09:28:57;94894.59;;;-5.28;100.00
51829;BME280;37881;48.024;8.774;2022-12-18T09:31:24;94894.19;;;-5.35;100.00
51829;BME280;37881;48.024;8.774;2022-12-18T09:33:51;94889.03;;;-5.31;100.00
51829;BME280;37881;48.024;8.774;2022-12-18T09:36:18;94889.13;;;-5.36;100.00
51829;BME280;37881;48.024;8.774;2022-12-18T09:38:45;94891.13;;;-5.28;100.00
51829;BME280;37881;48.024;8.774;2022-12-18T09:43:54;94893.69;;;-5.37;100.00
51829;BME280;37881;48.024;8.774;2022-12-18T09:46:35;94898.78;;;-5.22;100.00
51829;BME280;37881;48.024;8.774;2022-12-18T09:49:06;94892.44;;;-4.93;99.64
51829;BME280;37881;48.024;8.774;2022-12-18T09:51:39;94896.03;;;-4.84;99.55
51829;BME280;37881;48.024;8.774;2022-12-18T09:54:19;94893.09;;;-5.01;97.97
51829;BME280;37881;48.024;8.774;2022-12-18T09:56:47;94893.25;;;-5.11;99.35
51829;BME280;37881;48.024;8.774;2022-12-18T09:59:31;94899.72;;;-5.12;99.23
51829;BME280;37881;48.024;8.774;2022-12-18T10:02:15;94912.38;;;-4.85;99.30
51829;BME280;37881;48.024;8.774;2022-12-18T10:04:43;94900.56;;;-4.98;99.42
51829;BME280;37881;48.024;8.774;2022-12-18T10:09:56;94907.50;;;-4.97;97.86
51829;BME280;37881;48.024;8.774;2022-12-18T10:12:32;94904.78;;;-4.78;97.87
51829;BME280;37881;48.024;8.774;2022-12-18T10:15:30;94912.53;;;-4.76;96.83
51829;BME280;37881;48.024;8.774;2022-12-18T10:18:29;94907.00;;;-4.66;98.15
51829;BME280;37881;48.024;8.774;2022-12-18T10:21:09;94903.81;;;-4.68;97.92
51829;BME280;37881;48.024;8.774;2022-12-18T10:26:14;94896.38;;;-4.57;97.16
51829;BME280;37881;48.024;8.774;2022-12-18T10:28:41;94901.94;;;-4.54;96.77
51829;BME280;37881;48.024;8.774;2022-12-18T10:31:23;94905.72;;;-4.41;96.64
51829;BME280;37881;48.024;8.774;2022-12-18T10:33:52;94902.34;;;-4.33;96.44
51829;BME280;37881;48.024;8.774;2022-12-18T10:36:21;94908.53;;;-4.18;94.86
51829;BME280;37881;48.024;8.774;2022-12-18T10:38:49;94902.47;;;-4.24;94.78
51829;BME280;37881;48.024;8.774;2022-12-18T10:43:47;94908.41;;;-4.41;95.05
51829;BME280;37881;48.024;8.774;2022-12-18T10:46:17;94903.84;;;-4.27;95.06
51829;BME280;37881;48.024;8.774;2022-12-18T10:53:52;94897.41;;;-4.26;94.68
51829;BME280;37881;48.024;8.774;2022-12-18T10:56:20;94892.13;;;-3.89;93.78
51829;BME280;37881;48.024;8.774;2022-12-18T10:59:11;94889.25;;;-4.07;93.49
51829;BME280;37881;48.024;8.774;2022-12-18T11:01:54;94885.09;;;-4.13;94.12
51829;BME280;37881;48.024;8.774;2022-12-18T11:04:25;94888.88;;;-4.00;93.09
51829;BME280;37881;48.024;8.774;2022-12-18T11:06:57;94883.88;;;-3.93;94.07
51829;BME280;37881;48.024;8.774;2022-12-18T11:09:31;94882.31;;;-3.44;92.16
51829;BME280;37881;48.024;8.774;2022-12-18T11:12:04;94875.31;;;-3.67;91.45
51829;BME280;37881;48.024;8.774;2022-12-18T11:14:34;94876.25;;;-3.49;90.95
51829;BME280;37881;48.024;8.774;2022-12-18T11:17:01;94866.03;;;-3.97;91.43
51829;BME280;37881;48.024;8.774;2022-12-18T11:19:56;94883.34;;;-3.67;91.11
51829;BME280;37881;48.024;8.774;2022-12-18T11:22:25;94874.53;;;-3.68;91.90
51829;BME280;37881;48.024;8.774;2022-12-18T11:25:00;94870.88;;;-3.86;91.56
51829;BME280;37881;48.024;8.774;2022-12-18T11:27:52;94868.50;;;-4.01;93.13
51829;BME280;37881;48.024;8.774;2022-12-18T11:32:51;94871.75;;;-3.76;93.43
51829;BME280;37881;48.024;8.774;2022-12-18T11:35:56;94859.44;;;-3.77;93.06
51829;BME280;37881;48.024;8.774;2022-12-18T11:40:58;94861.38;;;-3.55;91.64
51829;BME280;37881;48.024;8.774;2022-12-18T11:43:31;94855.72;;;-3.54;90.77
51829;BME280;37881;48.024;8.774;2022-12-18T11:46:11;94857.94;;;-3.70;92.12
51829;BME280;37881;48.024;8.774;2022-12-18T11:48:49;94859.25;;;-3.45;92.54
51829;BME280;37881;48.024;8.774;2022-12-18T11:51:25;94859.25;;;-3.45;92.03
51829;BME280;37881;48.024;8.774;2022-12-18T11:53:54;94861.03;;;-3.40;91.55
51829;BME280;37881;48.024;8.774;2022-12-18T11:56:33;94863.16;;;-3.65;92.01
51829;BME280;37881;48.024;8.774;2022-12-18T12:01:51;94855.34;;;-3.38;91.01
51829;BME280;37881;48.024;8.774;2022-12-18T12:07:11;94862.31;;;-2.92;89.93
51829;BME280;37881;48.024;8.774;2022-12-18T12:09:48;94858.75;;;-3.24;90.35
51829;BME280;37881;48.024;8.774;2022-12-18T12:17:50;94829.25;;;-3.02;89.60
51829;BME280;37881;48.024;8.774;2022-12-18T12:38:08;94820.00;;;-3.54;90.89
51829;BME280;37881;48.024;8.774;2022-12-18T12:40:39;94832.19;;;-3.71;91.57
51829;BME280;37881;48.024;8.774;2022-12-18T12:43:38;94829.66;;;-3.31;91.54
51829;BME280;37881;48.024;8.774;2022-12-18T12:46:18;94828.94;;;-3.23;91.43
51829;BME280;37881;48.024;8.774;2022-12-18T12:49:15;94823.47;;;-3.40;91.18
51829;BME280;37881;48.024;8.774;2022-12-18T12:51:46;94823.72;;;-3.28;91.07
51829;BME280;37881;48.024;8.774;2022-12-18T12:54:19;94822.25;;;-3.34;90.80
51829;BME280;37881;48.024;8.774;2022-12-18T12:57:09;94824.41;;;-3.58;91.88
51829;BME280;37881;48.024;8.774;2022-12-18T13:05:19;94831.47;;;-3.63;92.47
51829;BME280;37881;48.024;8.774;2022-12-18T13:07:54;94840.63;;;-3.64;93.04
51829;BME280;37881;48.024;8.774;2022-12-18T13:10:26;94830.41;;;-3.39;93.34
51829;BME280;37881;48.024;8.774;2022-12-18T13:15:34;94840.25;;;-3.71;93.36
51829;BME280;37881;48.024;8.774;2022-12-18T13:18:23;94834.88;;;-3.71;93.57
51829;BME280;37881;48.024;8.774;2022-12-18T13:21:01;94836.59;;;-3.52;93.28
51829;BME280;37881;48.024;8.774;2022-12-18T13:23:48;94836.16;;;-3.68;93.71
51829;BME280;37881;48.024;8.774;2022-12-18T13:28:55;94823.16;;;-3.75;93.21
51829;BME280;37881;48.024;8.774;2022-12-18T13:34:22;94821.91;;;-3.91;94.58
51829;BME280;37881;48.024;8.774;2022-12-18T13:36:55;94819.06;;;-3.72;94.13
51829;BME280;37881;48.024;8.774;2022-12-18T13:39:25;94828.09;;;-3.68;93.28
51829;BME280;37881;48.024;8.774;2022-12-18T13:44:39;94826.59;;;-3.97;94.93
51829;BME280;37881;48.024;8.774;2022-12-18T13:47:32;94822.22;;;-4.07;95.51
51829;BME280;37881;48.024;8.774;2022-12-18T13:50:02;94815.88;;;-3.97;95.67
51829;BME280;37881;48.024;8.774;2022-12-18T13:52:37;94814.88;;;-4.01;95.09
51829;BME280;37881;48.024;8.774;2022-12-18T13:55:11;94816.97;;;-3.98;95.54
51829;BME280;37881;48.024;8.774;2022-12-18T13:57:42;94821.16;;;-4.19;95.76
51829;BME280;37881;48.024;8.774;2022-12-18T14:02:49;94826.94;;;-4.12;96.17
51829;BME280;37881;48.024;8.774;2022-12-18T14:05:25;94830.63;;;-4.22;96.26
51829;BME280;37881;48.024;8.774;2022-12-18T14:07:53;94825.25;;;-4.22;96.99
51829;BME280;37881;48.024;8.774;2022-12-18T14:10:21;94822.44;;;-4.17;96.29
51829;BME280;37881;48.024;8.774;2022-12-18T14:13:10;94813.13;;;-4.06;96.40
51829;BME280;37881;48.024;8.774;2022-12-18T14:15:42;94829.41;;;-4.02;96.15
51829;BME280;37881;48.024;8.774;2022-12-18T14:18:25;94823.56;;;-4.18;95.82
51829;BME280;37881;48.024;8.774;2022-12-18T14:20:58;94826.34;;;-4.23;96.38
51829;BME280;37881;48.024;8.774;2022-12-18T14:23:37;94818.22;;;-4.32;97.12
51829;BME280;37881;48.024;8.774;2022-12-18T14:26:25;94826.03;;;-4.35;97.77
51829;BME280;37881;48.024;8.774;2022-12-18T14:28:55;94833.78;;;-4.34;97.77
51829;BME280;37881;48.024;8.774;2022-12-18T14:31:24;94829.41;;;-4.16;97.64
51829;BME280;37881;48.024;8.774;2022-12-18T14:33:52;94826.44;;;-4.28;97.61
51829;BME280;37881;48.024;8.774;2022-12-18T14:36:29;94833.78;;;-4.34;97.54
51829;BME280;37881;48.024;8.774;2022-12-18T14:38:57;94834.69;;;-4.38;98.33
51829;BME280;37881;48.024;8.774;2022-12-18T14:41:25;94829.81;;;-4.36;98.13